createdAt,value
2023-02-07T00:01:36.713Z,102783.50
2023-02-07T00:04:04.962Z,102784.41
2023-02-07T00:06:35.532Z,102790.56
2023-02-07T00:09:06.370Z,102795.84
2023-02-07T00:11:35.367Z,102794.13
2023-02-07T00:14:04.745Z,102807.16
2023-02-07T00:16:32.735Z,102808.06
2023-02-07T00:19:01.235Z,102809.81
2023-02-07T00:21:29.881Z,102815.88
2023-02-07T00:23:58.908Z,102814.97
2023-02-07T00:26:28.277Z,102811.47
2023-02-07T00:28:57.140Z,102807.94
2023-02-07T00:31:29.159Z,102810.47
2023-02-07T00:34:00.509Z,102806.13
2023-02-07T00:36:31.379Z,102807.91
2023-02-07T00:39:00.728Z,102811.28
2023-02-07T00:41:30.369Z,102807.84
2023-02-07T00:43:58.915Z,102802.66
2023-02-07T00:46:29.268Z,102805.38
2023-02-07T00:48:57.551Z,102794.13
2023-02-07T00:51:26.610Z,102791.59
2023-02-07T00:53:55.054Z,102795.22
2023-02-07T00:56:24.548Z,102798.69
2023-02-07T00:58:52.968Z,102807.41
2023-02-07T01:01:21.576Z,102808.28
2023-02-07T01:03:52.741Z,102803.91
2023-02-07T01:06:21.389Z,102810.84
2023-02-07T01:08:49.786Z,102797.81
2023-02-07T01:11:19.163Z,102798.63
2023-02-07T01:13:51.798Z,102796.81
2023-02-07T01:16:27.116Z,102802.91
2023-02-07T01:18:56.798Z,102806.38
2023-02-07T01:21:27.986Z,102809.78
2023-02-07T01:23:57.163Z,102807.16
2023-02-07T01:26:26.145Z,102808.88
2023-02-07T01:28:54.842Z,102812.28
2023-02-07T01:31:24.169Z,102814.09
2023-02-07T01:33:56.489Z,102808.88
2023-02-07T01:36:28.734Z,102803.69
2023-02-07T01:38:57.294Z,102807.16
2023-02-07T01:41:26.679Z,102800.25
2023-02-07T01:43:58.383Z,102797.69
2023-02-07T01:46:27.170Z,102784.66
2023-02-07T01:49:01.674Z,102792.59
2023-02-07T01:51:33.375Z,102800.53
2023-02-07T01:54:06.155Z,102802.31
2023-02-07T01:56:36.699Z,102808.41
2023-02-07T01:59:06.857Z,102804.16
2023-02-07T02:01:35.957Z,102805.91
2023-02-07T02:04:05.811Z,102810.28
2023-02-07T02:06:35.198Z,102810.34
2023-02-07T02:09:10.459Z,102805.16
2023-02-07T02:11:54.846Z,102809.53
2023-02-07T02:14:44.644Z,102813.00
2023-02-07T02:17:23.960Z,102813.06
2023-02-07T02:20:26.643Z,102812.31
2023-02-07T02:23:07.895Z,102803.72
2023-02-07T02:26:04.321Z,102808.97
2023-02-07T02:29:09.492Z,102808.97
2023-02-07T02:32:09.094Z,102809.06
2023-02-07T02:34:45.150Z,102809.94
2023-02-07T02:37:21.291Z,102807.31
2023-02-07T02:39:55.129Z,102809.91
2023-02-07T02:42:29.517Z,102804.69
2023-02-07T02:45:01.447Z,102803.88
2023-02-07T02:47:32.323Z,102803.88
2023-02-07T02:50:02.705Z,102805.63
2023-02-07T02:52:49.579Z,102804.78
2023-02-07T02:55:33.761Z,102800.47
2023-02-07T02:58:11.374Z,102800.47
2023-02-07T03:00:55.328Z,102797.06
2023-02-07T03:03:40.919Z,102799.69
2023-02-07T03:06:22.571Z,102794.50
2023-02-07T03:08:59.318Z,102795.47
2023-02-07T03:11:31.574Z,102798.06
2023-02-07T03:14:07.312Z,102791.09
2023-02-07T03:16:41.543Z,102784.19
2023-02-07T03:19:15.032Z,102778.16
2023-02-07T03:21:50.179Z,102770.41
2023-02-07T03:24:23.768Z,102777.38
2023-02-07T03:26:59.433Z,102779.97
2023-02-07T03:29:29.801Z,102785.22
2023-02-07T03:32:01.688Z,102787.81
2023-02-07T03:34:36.383Z,102780.88
2023-02-07T03:37:11.834Z,102780.91
2023-02-07T03:39:40.727Z,102780.91
2023-02-07T03:42:16.020Z,102779.19
2023-02-07T03:44:46.282Z,102770.56
2023-02-07T03:47:14.594Z,102776.66
2023-02-07T03:49:45.085Z,102780.09
2023-02-07T03:52:14.460Z,102781.88
2023-02-07T03:54:42.522Z,102782.72
2023-02-07T03:57:10.555Z,102785.34
2023-02-07T03:59:38.853Z,102785.38
2023-02-07T04:02:07.763Z,102787.09
2023-02-07T04:04:35.904Z,102795.78
2023-02-07T04:07:04.253Z,102801.91
2023-02-07T04:09:36.300Z,102795.84
2023-02-07T04:12:04.869Z,102795.88
2023-02-07T04:14:33.115Z,102787.22
2023-02-07T04:17:01.713Z,102788.09
2023-02-07T04:19:29.743Z,102787.25
2023-02-07T04:21:57.686Z,102795.88
2023-02-07T04:24:26.044Z,102796.75
2023-02-07T04:26:55.976Z,102794.16
2023-02-07T04:29:23.974Z,102808.03
2023-02-07T04:31:52.516Z,102815.81
2023-02-07T04:34:21.072Z,102811.50
2023-02-07T04:36:49.407Z,102814.97
2023-02-07T04:39:17.628Z,102809.81
2023-02-07T04:41:46.160Z,102811.53
2023-02-07T04:44:15.906Z,102807.19
2023-02-07T04:46:43.970Z,102806.34
2023-02-07T04:49:12.374Z,102809.78
2023-02-07T04:51:41.045Z,102807.19
2023-02-07T04:54:09.324Z,102805.50
2023-02-07T04:56:37.593Z,102807.22
2023-02-07T04:59:05.533Z,102807.22
2023-02-07T05:01:34.990Z,102797.69
2023-02-07T05:04:03.458Z,102805.50
2023-02-07T05:06:31.357Z,102811.56
2023-02-07T05:08:59.910Z,102808.97
2023-02-07T05:11:27.963Z,102815.03
2023-02-07T05:13:58.500Z,102821.06
2023-02-07T05:16:26.575Z,102820.25
2023-02-07T05:18:58.248Z,102817.63
2023-02-07T05:21:26.545Z,102820.25
2023-02-07T05:23:54.408Z,102821.13
2023-02-07T05:26:24.782Z,102824.56
2023-02-07T05:28:52.934Z,102827.19
2023-02-07T05:31:21.148Z,102840.16
2023-02-07T05:33:49.318Z,102828.03
2023-02-07T05:36:18.682Z,102827.19
2023-02-07T05:38:46.823Z,102832.38
2023-02-07T05:41:17.396Z,102838.41
2023-02-07T05:43:45.653Z,102836.69
2023-02-07T05:46:16.420Z,102822.88
2023-02-07T05:48:45.132Z,102833.22
2023-02-07T05:51:13.387Z,102835.81
2023-02-07T05:53:43.177Z,102832.34
2023-02-07T05:56:11.505Z,102836.69
2023-02-07T05:58:39.582Z,102841.00
2023-02-07T06:01:07.852Z,102835.81
2023-02-07T06:03:35.946Z,102838.44
2023-02-07T06:06:03.889Z,102832.38
2023-02-07T06:08:33.644Z,102837.53
2023-02-07T06:11:03.383Z,102839.28
2023-02-07T06:13:31.532Z,102841.00
2023-02-07T06:16:00.110Z,102846.19
2023-02-07T06:18:31.395Z,102857.44
2023-02-07T06:20:59.594Z,102853.09
2023-02-07T06:23:27.659Z,102854.84
2023-02-07T06:25:55.527Z,102858.28
2023-02-07T06:28:25.236Z,102862.59
2023-02-07T06:30:53.810Z,102861.72
2023-02-07T06:33:22.106Z,102853.94
2023-02-07T06:35:50.155Z,102857.41
2023-02-07T06:38:21.112Z,102859.16
2023-02-07T06:40:49.889Z,102867.75
2023-02-07T06:43:18.239Z,102870.38
2023-02-07T06:45:47.899Z,102885.06
2023-02-07T06:48:16.013Z,102881.59
2023-02-07T06:50:43.821Z,102879.88
2023-02-07T06:53:14.387Z,102889.38
2023-02-07T06:55:42.514Z,102893.69
2023-02-07T06:58:10.789Z,102900.59
2023-02-07T07:00:39.515Z,102904.06
2023-02-07T07:03:14.649Z,102914.44
2023-02-07T07:05:43.950Z,102909.28
2023-02-07T07:08:15.330Z,102909.25
2023-02-07T07:10:43.643Z,102911.84
2023-02-07T07:13:11.615Z,102923.09
2023-02-07T07:15:40.084Z,102929.13
2023-02-07T07:18:08.838Z,102932.63
2023-02-07T07:20:38.296Z,102932.63
2023-02-07T07:23:09.630Z,102937.81
2023-02-07T07:25:38.049Z,102939.53
2023-02-07T07:28:06.669Z,102935.22
2023-02-07T07:30:35.065Z,102940.41
2023-02-07T07:33:03.332Z,102937.81
2023-02-07T07:35:31.243Z,102939.56
2023-02-07T07:38:00.781Z,102939.56
2023-02-07T07:40:29.097Z,102948.19
2023-02-07T07:42:57.400Z,102953.41
2023-02-07T07:45:34.242Z,102943.91
2023-02-07T07:48:02.507Z,102949.09
2023-02-07T07:50:31.010Z,102948.22
2023-02-07T07:53:00.560Z,102953.41
2023-02-07T07:55:29.110Z,102953.44
2023-02-07T07:57:57.055Z,102953.41
2023-02-07T08:00:27.253Z,102944.78
2023-02-07T08:02:57.754Z,102950.84
2023-02-07T08:05:25.930Z,102947.38
2023-02-07T08:07:53.993Z,102947.38
2023-02-07T08:10:23.394Z,102946.50
2023-02-07T08:12:51.950Z,102953.41
2023-02-07T08:15:20.340Z,102952.56
2023-02-07T08:17:48.591Z,102945.63
2023-02-07T08:20:19.183Z,102952.53
2023-02-07T08:22:50.055Z,102956.00
2023-02-07T08:25:18.617Z,102944.72
2023-02-07T08:27:48.269Z,102953.34
2023-02-07T08:30:18.847Z,102958.53
2023-02-07T08:32:47.080Z,102950.72
2023-02-07T08:35:15.303Z,102948.97
2023-02-07T08:37:44.118Z,102958.50
2023-02-07T08:40:13.309Z,102961.94
2023-02-07T08:42:41.778Z,102970.63
2023-02-07T08:45:12.437Z,102972.34
2023-02-07T08:47:40.757Z,102975.78
2023-02-07T08:50:10.337Z,102975.75
2023-02-07T08:52:39.048Z,102980.97
2023-02-07T08:55:08.776Z,102971.44
2023-02-07T08:57:37.153Z,102980.09
2023-02-07T09:00:07.208Z,102979.25
2023-02-07T09:02:37.081Z,102978.34
2023-02-07T09:05:05.584Z,102975.69
2023-02-07T09:07:33.709Z,102974.75
2023-02-07T09:10:06.669Z,102975.66
2023-02-07T09:12:35.408Z,102966.03
2023-02-07T09:15:04.284Z,102969.47
2023-02-07T09:17:33.433Z,102966.81
2023-02-07T09:20:04.315Z,102964.19
2023-02-07T09:22:33.060Z,102964.13
2023-02-07T09:25:01.116Z,102957.13
2023-02-07T09:27:29.510Z,102964.06
2023-02-07T09:29:57.707Z,102946.69
2023-02-07T09:32:28.144Z,102947.47
2023-02-07T09:34:58.336Z,102953.53
2023-02-07T09:37:27.971Z,102945.63
2023-02-07T09:39:57.093Z,102937.81
2023-02-07T09:42:34.220Z,102949.88
2023-02-07T09:45:06.195Z,102939.41
2023-02-07T09:47:38.267Z,102944.56
2023-02-07T09:50:13.912Z,102937.53
2023-02-07T09:52:47.962Z,102934.88
2023-02-07T09:55:20.259Z,102926.97
2023-02-07T09:57:52.582Z,102933.09
2023-02-07T10:00:27.032Z,102932.09
2023-02-07T10:02:59.952Z,102926.72
2023-02-07T10:05:38.244Z,102928.47
2023-02-07T10:08:13.924Z,102935.28
2023-02-07T10:10:47.759Z,102941.22
2023-02-07T10:13:38.596Z,102939.56
2023-02-07T10:16:18.070Z,102939.38
2023-02-07T10:18:50.551Z,102931.41
2023-02-07T10:21:32.923Z,102935.59
2023-02-07T10:24:31.636Z,102933.69
2023-02-07T10:27:06.373Z,102918.69
2023-02-07T10:29:52.525Z,102917.72
2023-02-07T10:32:24.236Z,102912.41
2023-02-07T10:34:56.474Z,102911.34
2023-02-07T10:37:28.456Z,102911.22
2023-02-07T10:40:04.967Z,102916.31
2023-02-07T10:42:38.583Z,102911.81
2023-02-07T10:45:15.651Z,102911.72
2023-02-07T10:47:44.138Z,102902.88
2023-02-07T10:50:24.751Z,102901.91
2023-02-07T10:53:00.948Z,102903.03
2023-02-07T10:55:41.438Z,102903.72
2023-02-07T10:58:22.929Z,102902.59
2023-02-07T11:00:53.690Z,102900.69
2023-02-07T11:03:23.413Z,102897.06
2023-02-07T11:05:57.941Z,102906.50
2023-02-07T11:08:29.797Z,102900.28
2023-02-07T11:11:00.833Z,102894.84
2023-02-07T11:13:30.851Z,102902.50
2023-02-07T11:16:03.997Z,102895.19
2023-02-07T11:18:45.243Z,102897.44
2023-02-07T11:21:28.243Z,102891.25
2023-02-07T11:24:00.752Z,102885.09
2023-02-07T11:26:34.032Z,102877.97
2023-02-07T11:29:14.990Z,102878.84
2023-02-07T11:31:45.210Z,102876.28
2023-02-07T11:34:30.225Z,102881.41
2023-02-07T11:37:12.446Z,102876.78
2023-02-07T11:39:41.484Z,102875.88
2023-02-07T11:42:14.950Z,102876.00
2023-02-07T11:44:45.153Z,102871.59
2023-02-07T11:47:17.014Z,102869.78
2023-02-07T11:49:49.300Z,102872.22
2023-02-07T11:52:18.238Z,102862.41
2023-02-07T11:54:53.989Z,102870.97
2023-02-07T11:57:25.300Z,102865.44
2023-02-07T12:00:06.675Z,102860.88
2023-02-07T12:02:42.063Z,102859.56
2023-02-07T12:05:18.074Z,102867.13
2023-02-07T12:07:51.048Z,102859.88
2023-02-07T12:10:24.404Z,102855.19
2023-02-07T12:13:00.510Z,102850.41
2023-02-07T12:15:36.797Z,102840.38
2023-02-07T12:18:11.326Z,102847.13
2023-02-07T12:20:43.615Z,102844.75
2023-02-07T12:23:41.262Z,102836.56
2023-02-07T12:26:17.840Z,102841.56
2023-02-07T12:29:01.298Z,102842.28
2023-02-07T12:31:45.325Z,102827.13
2023-02-07T12:34:19.911Z,102835.44
2023-02-07T12:36:55.197Z,102837.72
2023-02-07T12:39:31.348Z,102837.69
2023-02-07T12:42:08.310Z,102833.16
2023-02-07T12:44:43.179Z,102834.63
2023-02-07T12:47:21.436Z,102830.50
2023-02-07T12:50:04.359Z,102833.72
2023-02-07T12:52:43.147Z,102826.41
2023-02-07T12:55:21.523Z,102824.22
2023-02-07T12:57:58.190Z,102818.84
2023-02-07T13:00:38.958Z,102817.25
2023-02-07T13:03:20.989Z,102810.91
2023-02-07T13:06:03.038Z,102807.00
2023-02-07T13:08:43.854Z,102801.13
2023-02-07T13:11:26.037Z,102801.06
2023-02-07T13:14:09.184Z,102800.03
2023-02-07T13:16:47.562Z,102795.16
2023-02-07T13:19:24.090Z,102793.88
2023-02-07T13:21:59.442Z,102789.44
2023-02-07T13:24:31.844Z,102787.56
2023-02-07T13:27:06.534Z,102786.81
2023-02-07T13:29:36.635Z,102775.72
2023-02-07T13:32:12.395Z,102776.06
2023-02-07T13:34:46.619Z,102782.34
2023-02-07T13:37:17.654Z,102789.78
2023-02-07T13:39:57.301Z,102792.63
2023-02-07T13:42:32.388Z,102796.31
2023-02-07T13:45:07.784Z,102797.56
2023-02-07T13:47:58.100Z,102791.19
2023-02-07T13:50:41.548Z,102786.19
2023-02-07T13:53:26.379Z,102786.56
2023-02-07T13:55:55.168Z,102776.03
2023-02-07T13:59:10.209Z,102775.41
2023-02-07T14:01:46.946Z,102771.97
2023-02-07T14:04:16.510Z,102779.09
2023-02-07T14:06:46.919Z,102783.84
2023-02-07T14:09:19.330Z,102782.56
2023-02-07T14:11:50.191Z,102784.13
2023-02-07T14:14:26.255Z,102780.41
2023-02-07T14:16:56.839Z,102778.38
2023-02-07T14:19:54.634Z,102784.16
2023-02-07T14:22:26.674Z,102783.16
2023-02-07T14:25:21.284Z,102781.38
2023-02-07T14:28:19.510Z,102780.25
2023-02-07T14:31:14.510Z,102775.69
2023-02-07T14:33:43.213Z,102773.41
2023-02-07T14:36:26.354Z,102781.56
2023-02-07T14:39:04.687Z,102766.34
2023-02-07T14:41:36.284Z,102766.75
2023-02-07T14:44:09.871Z,102767.81
2023-02-07T14:46:42.106Z,102770.63
2023-02-07T14:49:19.753Z,102771.09
2023-02-07T14:51:52.972Z,102772.63
2023-02-07T14:54:29.036Z,102769.91
2023-02-07T14:57:07.810Z,102765.31
2023-02-07T14:59:41.924Z,102764.31
2023-02-07T15:02:37.180Z,102768.38
2023-02-07T15:05:27.403Z,102770.81
2023-02-07T15:08:07.370Z,102761.44
2023-02-07T15:10:38.694Z,102767.75
2023-02-07T15:13:19.393Z,102776.03
2023-02-07T15:15:52.473Z,102766.56
2023-02-07T15:18:23.830Z,102767.63
2023-02-07T15:20:57.503Z,102773.38
2023-02-07T15:23:31.530Z,102772.22
2023-02-07T15:26:05.198Z,102776.25
2023-02-07T15:28:33.995Z,102772.94
2023-02-07T15:31:04.851Z,102777.53
2023-02-07T15:33:36.783Z,102782.38
2023-02-07T15:36:27.205Z,102779.69
2023-02-07T15:38:57.870Z,102788.16
2023-02-07T15:41:27.219Z,102787.09
2023-02-07T15:43:59.509Z,102795.75
2023-02-07T15:46:28.606Z,102792.81
2023-02-07T15:48:58.205Z,102786.28
2023-02-07T15:51:29.903Z,102794.63
2023-02-07T15:54:02.729Z,102791.59
2023-02-07T15:56:32.893Z,102797.31
2023-02-07T15:59:10.527Z,102793.41
2023-02-07T16:01:39.341Z,102785.13
2023-02-07T16:04:08.621Z,102792.44
2023-02-07T16:06:37.155Z,102795.34
2023-02-07T16:09:06.880Z,102796.81
2023-02-07T16:11:40.933Z,102799.88
2023-02-07T16:14:21.884Z,102794.84
2023-02-07T16:16:53.150Z,102792.38
2023-02-07T16:19:26.494Z,102790.78
2023-02-07T16:22:03.148Z,102796.31
2023-02-07T16:24:36.235Z,102800.97
2023-02-07T16:27:05.949Z,102796.81
2023-02-07T16:29:38.648Z,102795.41
2023-02-07T16:32:07.552Z,102796.59
2023-02-07T16:34:39.172Z,102804.81
2023-02-07T16:37:14.578Z,102810.31
2023-02-07T16:39:43.993Z,102814.94
2023-02-07T16:42:16.427Z,102814.22
2023-02-07T16:44:47.362Z,102819.72
2023-02-07T16:47:15.797Z,102821.66
2023-02-07T16:49:45.242Z,102820.97
2023-02-07T16:52:13.444Z,102824.72
2023-02-07T16:54:41.710Z,102828.41
2023-02-07T16:57:12.793Z,102827.75
2023-02-07T16:59:41.335Z,102830.53
2023-02-07T17:02:15.246Z,102826.34
2023-02-07T17:04:43.781Z,102829.16
2023-02-07T17:07:12.250Z,102834.53
2023-02-07T17:09:40.957Z,102835.53
2023-02-07T17:12:10.341Z,102841.72
2023-02-07T17:14:40.052Z,102841.81
2023-02-07T17:17:08.340Z,102848.94
2023-02-07T17:19:36.725Z,102857.75
2023-02-07T17:22:05.141Z,102851.81
2023-02-07T17:24:35.607Z,102856.38
2023-02-07T17:27:03.737Z,102854.75
2023-02-07T17:29:34.762Z,102852.34
2023-02-07T17:32:04.670Z,102864.63
2023-02-07T17:34:32.743Z,102856.94
2023-02-07T17:37:04.323Z,102857.91
2023-02-07T17:39:32.506Z,102860.59
2023-02-07T17:42:00.516Z,102859.06
2023-02-07T17:44:28.693Z,102869.50
2023-02-07T17:46:59.057Z,102873.03
2023-02-07T17:49:28.761Z,102864.41
2023-02-07T17:51:57.009Z,102867.97
2023-02-07T17:54:25.173Z,102868.91
2023-02-07T17:56:55.692Z,102866.38
2023-02-07T17:59:25.961Z,102862.94
2023-02-07T18:01:54.520Z,102860.44
2023-02-07T18:04:23.341Z,102854.41
2023-02-07T18:06:52.866Z,102850.97
2023-02-07T18:09:21.445Z,102847.63
2023-02-07T18:11:49.778Z,102854.59
2023-02-07T18:14:18.112Z,102849.44
2023-02-07T18:16:47.072Z,102852.16
2023-02-07T18:19:17.126Z,102853.91
2023-02-07T18:21:45.159Z,102850.47
2023-02-07T18:24:16.971Z,102844.47
2023-02-07T18:26:46.367Z,102851.41
2023-02-07T18:29:17.050Z,102851.44
2023-02-07T18:31:45.897Z,102852.38
2023-02-07T18:34:14.151Z,102859.31
2023-02-07T18:36:43.266Z,102852.41
2023-02-07T18:39:14.040Z,102856.72
2023-02-07T18:41:43.849Z,102854.19
2023-02-07T18:44:12.168Z,102859.44
2023-02-07T18:46:40.338Z,102864.63
2023-02-07T18:49:08.483Z,102867.28
2023-02-07T18:51:36.327Z,102863.84
2023-02-07T18:54:06.348Z,102867.31
2023-02-07T18:56:35.744Z,102869.94
2023-02-07T18:59:05.777Z,102869.97
2023-02-07T19:01:35.199Z,102870.91
2023-02-07T19:04:04.289Z,102874.38
2023-02-07T19:06:34.579Z,102861.41
2023-02-07T19:09:03.410Z,102864.88
2023-02-07T19:11:32.297Z,102872.72
2023-02-07T19:14:01.038Z,102878.78
2023-02-07T19:16:34.963Z,102877.94
2023-02-07T19:19:03.562Z,102897.91
2023-02-07T19:21:35.740Z,102895.28
2023-02-07T19:24:09.369Z,102890.97
2023-02-07T19:26:37.867Z,102891.84
2023-02-07T19:29:06.425Z,102886.66
2023-02-07T19:31:38.492Z,102885.81
2023-02-07T19:34:07.032Z,102888.44
2023-02-07T19:36:35.504Z,102884.97
2023-02-07T19:39:05.217Z,102884.97
2023-02-07T19:41:34.554Z,102883.25
2023-02-07T19:44:02.957Z,102890.19
2023-02-07T19:46:35.414Z,102891.94
2023-02-07T19:49:04.480Z,102888.50
2023-02-07T19:51:33.306Z,102883.28
2023-02-07T19:54:01.955Z,102891.13
2023-02-07T19:56:33.374Z,102880.72
2023-02-07T19:59:03.717Z,102882.47
2023-02-07T20:01:34.297Z,102888.56
2023-02-07T20:04:05.729Z,102892.88
2023-02-07T20:06:35.821Z,102893.72
2023-02-07T20:09:08.007Z,102897.22
2023-02-07T20:11:36.776Z,102890.28
2023-02-07T20:14:05.952Z,102890.28
2023-02-07T20:16:38.769Z,102883.34
2023-02-07T20:19:08.883Z,102880.78
2023-02-07T20:21:38.054Z,102879.03
2023-02-07T20:24:06.485Z,102879.91
2023-02-07T20:26:37.608Z,102884.22
2023-02-07T20:29:09.558Z,102885.97
2023-02-07T20:31:38.890Z,102893.75
2023-02-07T20:34:09.099Z,102889.44
2023-02-07T20:36:41.262Z,102893.78
2023-02-07T20:39:12.367Z,102888.53
2023-02-07T20:41:46.069Z,102887.69
2023-02-07T20:44:16.938Z,102894.63
2023-02-07T20:46:46.686Z,102892.88
2023-02-07T20:49:20.006Z,102891.16
2023-02-07T20:51:50.120Z,102888.56
2023-02-07T20:54:19.717Z,102892.88
2023-02-07T20:56:50.078Z,102891.09
2023-02-07T20:59:20.173Z,102890.25
2023-02-07T21:01:48.306Z,102891.13
2023-02-07T21:04:20.053Z,102895.44
2023-02-07T21:06:48.033Z,102896.31
2023-02-07T21:09:18.463Z,102891.97
2023-02-07T21:11:49.332Z,102885.91
2023-02-07T21:14:22.736Z,102885.94
2023-02-07T21:16:52.506Z,102889.38
2023-02-07T21:19:25.154Z,102885.91
2023-02-07T21:21:54.943Z,102878.13
2023-02-07T21:24:23.775Z,102883.28
2023-02-07T21:26:53.616Z,102883.31
2023-02-07T21:29:22.852Z,102885.88
2023-02-07T21:31:52.320Z,102897.09
2023-02-07T21:34:25.743Z,102885.00
2023-02-07T21:36:54.225Z,102885.84
2023-02-07T21:39:24.234Z,102886.75
2023-02-07T21:41:54.740Z,102887.59
2023-02-07T21:44:22.810Z,102884.13
2023-02-07T21:46:52.248Z,102886.72
2023-02-07T21:49:24.456Z,102883.25
2023-02-07T21:51:54.222Z,102882.41
2023-02-07T21:54:23.076Z,102894.44
2023-02-07T21:56:51.438Z,102889.31
2023-02-07T21:59:21.292Z,102886.69
2023-02-07T22:01:49.644Z,102874.59
2023-02-07T22:04:17.864Z,102868.56
2023-02-07T22:06:56.601Z,102863.38
2023-02-07T22:09:24.869Z,102874.56
2023-02-07T22:11:54.488Z,102883.22
2023-02-07T22:14:25.388Z,102875.44
2023-02-07T22:16:55.816Z,102883.22
2023-02-07T22:19:24.914Z,102878.00
2023-02-07T22:21:54.990Z,102874.53
2023-02-07T22:24:23.082Z,102875.44
2023-02-07T22:26:51.327Z,102872.81
2023-02-07T22:29:19.631Z,102869.34
2023-02-07T22:31:48.598Z,102866.75
2023-02-07T22:34:17.002Z,102865.91
2023-02-07T22:36:46.454Z,102867.63
2023-02-07T22:39:20.516Z,102863.31
2023-02-07T22:41:48.926Z,102849.50
2023-02-07T22:44:17.260Z,102858.13
2023-02-07T22:46:45.355Z,102848.63
2023-02-07T22:49:13.579Z,102856.38
2023-02-07T22:51:41.723Z,102852.06
2023-02-07T22:54:15.815Z,102856.41
2023-02-07T22:56:50.088Z,102841.72
2023-02-07T22:59:18.095Z,102844.31
2023-02-07T23:01:46.680Z,102840.03
2023-02-07T23:04:18.026Z,102835.72
2023-02-07T23:06:47.762Z,102834.88
2023-02-07T23:09:18.792Z,102848.69
2023-02-07T23:11:47.021Z,102838.31
2023-02-07T23:14:17.304Z,102842.63
2023-02-07T23:16:45.296Z,102842.63
2023-02-07T23:19:15.640Z,102839.19
2023-02-07T23:21:43.733Z,102840.91
2023-02-07T23:24:12.418Z,102846.97
2023-02-07T23:26:41.171Z,102848.69
2023-02-07T23:29:09.757Z,102840.91
2023-02-07T23:31:39.541Z,102838.31
2023-02-07T23:34:10.557Z,102839.19
2023-02-07T23:36:39.481Z,102844.34
2023-02-07T23:39:07.398Z,102842.63
2023-02-07T23:41:35.929Z,102850.38
2023-02-07T23:44:04.602Z,102851.19
2023-02-07T23:46:33.599Z,102849.44
2023-02-07T23:49:03.113Z,102847.66
2023-02-07T23:51:31.174Z,102846.78
2023-02-07T23:53:59.231Z,102846.75
2023-02-07T23:56:27.443Z,102844.16
2023-02-07T23:58:55.705Z,102838.94
